Ilias__ R — SX7927 — position and weather

sailwx.info

Track history (hours):
 
Tides and Currents Weather Stations Pressure Air Temp Water Temp Dewpoint Dewpoint Depression Visibility Wind Speed Wind Dir Waves Ship Positions

Ilias__ R

Last reported at 2018-Jan-03 05:56 UTC. Time now 2018-Jan-20 05:31 UTC.
Position N 35°24' E 024°26'.
Warning: this ship's position is 16 days out of date.

Length 27 m; draft 2.4 m.

Type: Fishing. MMSI: 240137000.

Date/timePositionNaut miles runAvg speedWind from/ knotsBaromVisibWave heightAir tempDewpointWater temp
2018-Jan-03 05:56N 35°24' E 024°26'1 2.9
2018-Jan-03 05:30N 35°24' E 024°25'1 2.7
2018-Jan-03 05:00N 35°24' E 024°23'3 5.4
2018-Jan-03 04:30N 35°25' E 024°20'  
2017-Dec-27 11:02N 36°46' E 024°48'0 0.4
2017-Dec-27 11:00N 36°46' E 024°48'1 1.3
2017-Dec-27 10:30N 36°46' E 024°49'1 3.0
2017-Dec-27 10:01N 36°46' E 024°50'1 3.0
2017-Dec-27 09:30N 36°46' E 024°52'1 2.8
2017-Dec-27 09:00N 36°46' E 024°54'2 3.7
2017-Dec-27 08:30N 36°47' E 024°56'1 2.4
2017-Dec-27 08:01N 36°47' E 024°55'0 0.1
2017-Dec-27 07:30N 36°47' E 024°55'1 3.0
2017-Dec-27 07:00N 36°48' E 024°56'1 3.0
2017-Dec-27 06:30N 36°48' E 024°58'2 3.0
2017-Dec-27 06:00N 36°49' E 024°60'2 3.1
2017-Dec-27 05:30N 36°49' E 025°02'1 3.0
2017-Dec-27 05:00N 36°49' E 025°03'1 3.0
2017-Dec-27 04:30N 36°49' E 025°05'14 1.1
2017-Dec-26 16:05N 36°46' E 024°48'1 1.3
2017-Dec-26 15:23N 36°46' E 024°49'1 3.0
2017-Dec-26 15:00N 36°47' E 024°51'1 2.9
2017-Dec-26 14:30N 36°47' E 024°52'2 3.0
2017-Dec-26 14:00N 36°47' E 024°54'1 3.0
2017-Dec-26 13:30N 36°48' E 024°56'1 3.0
2017-Dec-26 13:00N 36°48' E 024°57'1 3.0
2017-Dec-26 12:30N 36°49' E 024°59'2 3.0
2017-Dec-26 12:00N 36°49' E 025°01'2 3.0
2017-Dec-26 11:30N 36°50' E 025°03'2 3.0
2017-Dec-26 11:00N 36°50' E 025°05'2 0.9
2017-Dec-26 09:10N 36°50' E 025°07'0 3.0
2017-Dec-26 09:00N 36°50' E 025°06'2 3.0
2017-Dec-26 08:30N 36°49' E 025°04'1 3.0
2017-Dec-26 08:00N 36°49' E 025°02'1 3.0
2017-Dec-26 07:30N 36°49' E 025°01'1 3.0
2017-Dec-26 07:00N 36°49' E 024°59'1 3.0
2017-Dec-26 06:30N 36°48' E 024°57'1 3.0
2017-Dec-26 06:00N 36°47' E 024°56'2 3.1
2017-Dec-26 05:30N 36°47' E 024°54'1 3.0
2017-Dec-26 05:00N 36°47' E 024°52'1 2.9
2017-Dec-26 04:30N 36°47' E 024°50'  
Track history (hours):
 
Tides and Currents Weather Stations Pressure Air Temp Water Temp Dewpoint Dewpoint Depression Visibility Wind Speed Wind Dir Waves Ship Positions

Ilias__ R

Last reported at 2018-Jan-03 05:56 UTC. Time now 2018-Jan-20 05:31 UTC.
Position N 35°24' E 024°26'.
Warning: this ship's position is 16 days out of date.

Length 27 m; draft 2.4 m.

Type: Fishing. MMSI: 240137000.

Date/timePositionNaut miles runAvg speedWind from/ knotsBaromVisibWave heightAir tempDewpointWater temp
2018-Jan-03 05:56N 35°24' E 024°26'1 2.9
2018-Jan-03 05:30N 35°24' E 024°25'1 2.7
2018-Jan-03 05:00N 35°24' E 024°23'3 5.4
2018-Jan-03 04:30N 35°25' E 024°20'  
2017-Dec-27 11:02N 36°46' E 024°48'0 0.4
2017-Dec-27 11:00N 36°46' E 024°48'1 1.3
2017-Dec-27 10:30N 36°46' E 024°49'1 3.0
2017-Dec-27 10:01N 36°46' E 024°50'1 3.0
2017-Dec-27 09:30N 36°46' E 024°52'1 2.8
2017-Dec-27 09:00N 36°46' E 024°54'2 3.7
2017-Dec-27 08:30N 36°47' E 024°56'1 2.4
2017-Dec-27 08:01N 36°47' E 024°55'0 0.1
2017-Dec-27 07:30N 36°47' E 024°55'1 3.0
2017-Dec-27 07:00N 36°48' E 024°56'1 3.0
2017-Dec-27 06:30N 36°48' E 024°58'2 3.0
2017-Dec-27 06:00N 36°49' E 024°60'2 3.1
2017-Dec-27 05:30N 36°49' E 025°02'1 3.0
2017-Dec-27 05:00N 36°49' E 025°03'1 3.0
2017-Dec-27 04:30N 36°49' E 025°05'14 1.1
2017-Dec-26 16:05N 36°46' E 024°48'1 1.3
2017-Dec-26 15:23N 36°46' E 024°49'1 3.0
2017-Dec-26 15:00N 36°47' E 024°51'1 2.9
2017-Dec-26 14:30N 36°47' E 024°52'2 3.0
2017-Dec-26 14:00N 36°47' E 024°54'1 3.0
2017-Dec-26 13:30N 36°48' E 024°56'1 3.0
2017-Dec-26 13:00N 36°48' E 024°57'1 3.0
2017-Dec-26 12:30N 36°49' E 024°59'2 3.0
2017-Dec-26 12:00N 36°49' E 025°01'2 3.0
2017-Dec-26 11:30N 36°50' E 025°03'2 3.0
2017-Dec-26 11:00N 36°50' E 025°05'2 0.9
2017-Dec-26 09:10N 36°50' E 025°07'0 3.0
2017-Dec-26 09:00N 36°50' E 025°06'2 3.0
2017-Dec-26 08:30N 36°49' E 025°04'1 3.0
2017-Dec-26 08:00N 36°49' E 025°02'1 3.0
2017-Dec-26 07:30N 36°49' E 025°01'1 3.0
2017-Dec-26 07:00N 36°49' E 024°59'1 3.0
2017-Dec-26 06:30N 36°48' E 024°57'1 3.0
2017-Dec-26 06:00N 36°47' E 024°56'2 3.1
2017-Dec-26 05:30N 36°47' E 024°54'1 3.0
2017-Dec-26 05:00N 36°47' E 024°52'1 2.9
2017-Dec-26 04:30N 36°47' E 024°50'  

Dump ship's entire track history